createdAt,value
2018-06-10T00:02:48.209Z,21.30
2018-06-10T00:05:16.560Z,21.40
2018-06-10T00:07:44.963Z,21.40
2018-06-10T00:10:13.316Z,21.50
2018-06-10T00:12:41.697Z,21.30
2018-06-10T00:15:10.047Z,21.30
2018-06-10T00:17:38.420Z,21.30
2018-06-10T00:20:06.783Z,21.30
2018-06-10T00:22:35.154Z,21.30
2018-06-10T00:25:03.553Z,21.30
2018-06-10T00:27:31.919Z,21.20
2018-06-10T00:30:00.276Z,21.10
2018-06-10T00:32:28.648Z,21.10
2018-06-10T00:34:57.011Z,21.20
2018-06-10T00:39:53.584Z,21.10
2018-06-10T00:42:21.980Z,21.00
2018-06-10T00:44:50.338Z,20.90
2018-06-10T00:47:18.720Z,20.90
2018-06-10T00:49:47.064Z,20.90
2018-06-10T00:52:15.571Z,20.90
2018-06-10T00:54:43.940Z,20.80
2018-06-10T00:57:12.324Z,20.80
2018-06-10T00:59:40.692Z,20.90
2018-06-10T01:02:09.168Z,20.80
2018-06-10T01:07:05.632Z,21.00
2018-06-10T01:09:34.098Z,20.90
2018-06-10T01:12:02.577Z,20.90
2018-06-10T01:19:27.122Z,20.80
2018-06-10T01:21:55.495Z,20.70
2018-06-10T01:24:23.848Z,20.60
2018-06-10T01:26:52.235Z,20.60
2018-06-10T01:29:20.624Z,20.70
2018-06-10T01:31:49.055Z,20.70
2018-06-10T01:34:17.428Z,20.90
2018-06-10T01:39:13.879Z,20.90
2018-06-10T01:41:42.243Z,20.90
2018-06-10T01:44:10.642Z,20.90
2018-06-10T01:46:39.007Z,20.90
2018-06-10T01:49:07.391Z,20.90
2018-06-10T01:51:35.831Z,20.90
2018-06-10T01:54:04.221Z,20.80
2018-06-10T01:59:00.672Z,20.60
2018-06-10T02:01:29.024Z,20.60
2018-06-10T02:03:57.428Z,20.70
2018-06-10T02:06:25.788Z,20.70
2018-06-10T02:08:54.171Z,20.80
2018-06-10T02:11:22.624Z,20.70
2018-06-10T02:16:19.059Z,20.60
2018-06-10T02:18:47.439Z,20.70
2018-06-10T02:21:15.825Z,20.50
2018-06-10T02:26:12.303Z,20.50
2018-06-10T02:38:33.016Z,20.60
2018-06-10T02:43:29.455Z,20.50
2018-06-10T02:45:57.820Z,20.50
2018-06-10T02:48:26.195Z,20.40
2018-06-10T02:50:54.540Z,20.40
2018-06-10T02:53:22.985Z,20.40
2018-06-10T02:55:51.428Z,20.40
2018-06-10T03:03:15.992Z,20.10
2018-06-10T03:05:44.339Z,20.10
2018-06-10T03:08:12.753Z,20.10
2018-06-10T03:10:41.111Z,20.10
2018-06-10T03:13:09.496Z,20.20
2018-06-10T03:15:37.848Z,20.20
2018-06-10T03:18:06.316Z,20.20
2018-06-10T03:20:34.744Z,20.10
2018-06-10T03:23:03.156Z,20.20
2018-06-10T03:25:31.519Z,20.30
2018-06-10T03:32:56.031Z,20.40
2018-06-10T03:35:24.522Z,20.30
2018-06-10T03:37:52.860Z,20.20
2018-06-10T03:40:21.244Z,20.20
2018-06-10T03:42:49.735Z,20.20
2018-06-10T03:45:18.152Z,20.10
2018-06-10T03:47:46.520Z,20.10
2018-06-10T03:50:14.962Z,20.10
2018-06-10T03:55:11.428Z,20.30
2018-06-10T03:57:39.867Z,20.40
2018-06-10T04:00:08.357Z,20.20
2018-06-10T04:05:04.804Z,20.20
2018-06-10T04:07:33.260Z,20.10
2018-06-10T04:10:01.734Z,20.20
2018-06-10T04:14:58.180Z,20.30
2018-06-10T04:17:26.531Z,20.40
2018-06-10T04:19:54.892Z,20.40
2018-06-10T04:22:23.235Z,20.30
2018-06-10T04:24:51.614Z,20.20
2018-06-10T04:27:19.967Z,20.20
2018-06-10T04:32:16.452Z,20.30
2018-06-10T04:44:37.209Z,20.20
2018-06-10T04:47:05.595Z,20.30
2018-06-10T04:49:33.980Z,20.40
2018-06-10T04:56:58.691Z,20.50
2018-06-10T04:59:27.071Z,20.40
2018-06-10T05:01:55.419Z,20.40
2018-06-10T05:06:51.895Z,20.80
2018-06-10T05:09:20.239Z,20.80
2018-06-10T05:11:48.628Z,20.90
2018-06-10T05:15:19.308Z,21.10
2018-06-10T05:17:47.651Z,21.00
2018-06-10T05:20:16.052Z,21.10
2018-06-10T05:22:44.409Z,21.10
2018-06-10T05:25:12.809Z,21.20
2018-06-10T05:27:41.235Z,21.30
2018-06-10T05:30:09.631Z,21.30
2018-06-10T05:35:06.075Z,21.40
2018-06-10T05:37:34.431Z,21.40
2018-06-10T05:40:02.853Z,21.40
2018-06-10T05:42:31.512Z,21.30
2018-06-10T05:49:56.152Z,21.20
2018-06-10T05:52:24.512Z,21.30
2018-06-10T05:54:52.936Z,21.20
2018-06-10T05:57:21.427Z,21.20
2018-06-10T06:02:17.923Z,21.40
2018-06-10T06:04:46.288Z,21.60
2018-06-10T06:09:42.771Z,21.60
2018-06-10T06:12:11.152Z,21.70
2018-06-10T06:14:39.518Z,21.70
2018-06-10T07:08:59.127Z,23.10
2018-06-10T07:11:27.487Z,22.80
2018-06-10T07:13:55.843Z,22.60
2018-06-10T07:18:52.332Z,22.60
2018-06-10T07:21:20.707Z,22.60
2018-06-10T07:26:17.231Z,23.10
2018-06-10T07:28:45.583Z,23.00
2018-06-10T07:31:13.991Z,22.90
2018-06-10T07:33:42.419Z,22.80
2018-06-10T07:36:10.781Z,22.80
2018-06-10T07:38:39.164Z,22.80
2018-06-10T07:41:07.540Z,23.00
2018-06-10T07:46:04.468Z,22.90
2018-06-10T23:04:34.176Z,22.70
